Time;durP1;ratioP1;P1;durP2;ratioP2;P2;SDS_P1;SDS_P2;PMS_P1;PMS_P2;Temp;Humidity;BMP_temperature;BMP_pressure;BME280_temperature;BME280_humidity;BME280_pressure;Samples;Min_cycle;Max_cycle;Signal;HPM_P1;HPM_P2
2023/06/02 00:01:59;;;;;;;15.20;3.73;;;11.00;99.90;;;;;;5030974;28;20191;-56
2023/06/02 00:04:29;;;;;;;17.93;3.50;;;11.00;99.90;;;;;;5030078;28;20279;-55
2023/06/02 00:07:00;;;;;;;12.83;3.50;;;11.00;99.90;;;;;;5037358;28;20223;-51
2023/06/02 00:09:28;;;;;;;21.17;3.90;;;11.00;99.90;;;;;;5032849;28;20187;-54
2023/06/02 00:11:55;;;;;;;16.80;3.83;;;11.00;99.90;;;;;;5045615;28;20351;-53
2023/06/02 00:14:23;;;;;;;15.30;4.20;;;11.00;99.90;;;;;;5029816;28;20203;-51
2023/06/02 00:16:50;;;;;;;13.53;4.20;;;11.00;99.90;;;;;;5043031;28;20310;-51
2023/06/02 00:19:18;;;;;;;11.80;3.50;;;11.00;99.90;;;;;;5040603;28;20265;-56
2023/06/02 00:21:47;;;;;;;14.63;3.73;;;11.00;99.90;;;;;;5043705;28;20206;-51
2023/06/02 00:24:15;;;;;;;12.90;3.40;;;11.00;99.90;;;;;;5041644;28;20206;-52
2023/06/02 00:26:42;;;;;;;16.67;4.00;;;11.00;99.90;;;;;;5036730;28;20268;-56
2023/06/02 00:29:08;;;;;;;21.63;4.80;;;11.00;99.90;;;;;;5038461;28;20207;-54
2023/06/02 00:31:35;;;;;;;16.23;4.30;;;11.00;99.90;;;;;;5031421;28;20302;-54
2023/06/02 00:34:02;;;;;;;17.37;4.60;;;11.00;99.90;;;;;;5042948;28;20203;-56
2023/06/02 00:36:29;;;;;;;21.63;4.83;;;11.00;99.90;;;;;;5038717;28;20210;-54
2023/06/02 00:38:57;;;;;;;10.93;3.23;;;11.00;99.90;;;;;;5045331;28;20310;-50
2023/06/02 00:41:25;;;;;;;11.10;3.10;;;11.00;99.90;;;;;;5034718;28;20796;-51
2023/06/02 00:43:52;;;;;;;11.70;3.93;;;10.90;99.90;;;;;;5031810;28;20191;-51
2023/06/02 00:46:20;;;;;;;18.20;3.70;;;10.90;99.90;;;;;;5035846;28;20225;-55
2023/06/02 00:48:48;;;;;;;22.90;4.00;;;10.90;99.90;;;;;;5039685;28;20312;-56
2023/06/02 00:51:15;;;;;;;13.10;3.27;;;10.90;99.90;;;;;;5039994;28;20692;-56
2023/06/02 00:53:42;;;;;;;27.23;4.50;;;10.90;99.90;;;;;;5031066;28;20223;-56
2023/06/02 00:56:13;;;;;;;18.70;4.10;;;10.90;99.90;;;;;;5029982;28;20219;-55
2023/06/02 00:58:41;;;;;;;19.20;4.20;;;10.90;99.90;;;;;;5056572;28;20195;-56
2023/06/02 01:01:10;;;;;;;14.20;3.83;;;10.80;99.90;;;;;;5060005;28;20191;-52
2023/06/02 01:03:37;;;;;;;18.40;3.60;;;10.80;99.90;;;;;;5055264;28;20199;-53
2023/06/02 01:06:06;;;;;;;11.40;3.30;;;10.80;99.90;;;;;;5039941;28;20922;-56
2023/06/02 01:08:35;;;;;;;17.60;3.80;;;10.80;99.90;;;;;;5035861;28;20199;-54
2023/06/02 01:11:06;;;;;;;16.80;4.60;;;10.80;99.90;;;;;;5038391;28;20282;-56
2023/06/02 01:13:34;;;;;;;12.70;3.23;;;10.80;99.90;;;;;;5044914;28;20215;-56
2023/06/02 01:16:01;;;;;;;14.60;3.57;;;10.80;99.90;;;;;;5040547;28;20226;-55
2023/06/02 01:18:31;;;;;;;15.57;3.77;;;10.80;99.90;;;;;;5040765;28;20285;-51
2023/06/02 01:21:00;;;;;;;16.40;3.90;;;10.70;99.90;;;;;;5029140;28;20203;-55
2023/06/02 01:23:33;;;;;;;19.17;3.50;;;10.70;99.90;;;;;;5019290;28;20184;-51
2023/06/02 01:26:05;;;;;;;14.33;4.03;;;10.70;99.90;;;;;;5039918;28;20219;-57
2023/06/02 01:28:32;;;;;;;15.63;3.33;;;10.60;99.90;;;;;;5044489;28;20194;-55
2023/06/02 01:31:07;;;;;;;18.53;3.77;;;10.60;99.90;;;;;;5042083;28;20242;-56
2023/06/02 01:33:43;;;;;;;14.37;3.77;;;10.60;99.90;;;;;;5043492;28;20633;-53
2023/06/02 01:36:09;;;;;;;23.37;3.73;;;10.60;99.90;;;;;;5027390;28;20230;-53
2023/06/02 01:38:39;;;;;;;12.70;3.67;;;10.50;99.90;;;;;;5020192;28;20222;-56
2023/06/02 01:41:11;;;;;;;18.77;4.10;;;10.50;99.90;;;;;;5039442;28;20286;-56
2023/06/02 01:43:38;;;;;;;14.13;4.67;;;10.50;99.90;;;;;;5043241;28;20287;-56
2023/06/02 01:46:07;;;;;;;15.07;3.77;;;10.50;99.90;;;;;;5039900;28;20207;-55
2023/06/02 01:48:34;;;;;;;28.03;4.57;;;10.40;99.90;;;;;;5038308;28;20581;-56
2023/06/02 01:51:02;;;;;;;17.70;4.13;;;10.40;99.90;;;;;;5021846;28;20219;-56
2023/06/02 01:53:28;;;;;;;17.00;4.40;;;10.40;99.90;;;;;;5041288;28;20219;-54
2023/06/02 01:55:56;;;;;;;14.83;3.47;;;10.40;99.90;;;;;;5024337;28;20303;-54
2023/06/02 01:58:24;;;;;;;12.37;3.57;;;10.40;99.90;;;;;;5022474;28;20199;-56
2023/06/02 02:00:55;;;;;;;17.37;3.67;;;10.40;99.90;;;;;;5021090;28;20263;-56
2023/06/02 02:03:23;;;;;;;16.23;3.67;;;10.40;99.90;;;;;;5014754;28;20771;-55
2023/06/02 02:05:51;;;;;;;18.63;4.13;;;10.30;99.90;;;;;;5025262;28;20250;-55
2023/06/02 02:08:19;;;;;;;18.63;3.90;;;10.40;99.90;;;;;;5037612;28;20296;-53
2023/06/02 02:10:46;;;;;;;21.00;3.67;;;10.30;99.90;;;;;;5029858;28;20199;-56
2023/06/02 02:13:13;;;;;;;20.23;4.50;;;10.30;99.90;;;;;;5040164;28;20215;-56
2023/06/02 02:15:41;;;;;;;18.10;3.47;;;10.30;99.90;;;;;;5040748;28;20641;-54
2023/06/02 02:18:09;;;;;;;13.00;3.83;;;10.30;99.90;;;;;;5032302;28;20191;-55
2023/06/02 02:20:40;;;;;;;14.83;3.30;;;10.30;99.90;;;;;;5041861;28;20276;-52
2023/06/02 02:23:08;;;;;;;16.40;3.37;;;10.30;99.90;;;;;;5034114;28;20201;-53
2023/06/02 02:25:35;;;;;;;17.63;3.70;;;10.30;99.90;;;;;;5043513;28;20612;-50
2023/06/02 02:28:03;;;;;;;14.40;3.93;;;10.30;99.90;;;;;;5040579;28;20195;-56
2023/06/02 02:30:30;;;;;;;12.13;3.63;;;10.20;99.90;;;;;;5036934;28;20207;-56
2023/06/02 02:33:02;;;;;;;19.33;3.47;;;10.20;99.90;;;;;;5031180;28;20884;-56
2023/06/02 02:35:29;;;;;;;17.70;4.07;;;10.20;99.90;;;;;;5041011;28;20229;-53
2023/06/02 02:37:58;;;;;;;20.30;4.87;;;10.20;99.90;;;;;;5033252;28;20207;-56
2023/06/02 02:40:27;;;;;;;15.13;4.23;;;10.10;99.90;;;;;;5043645;28;20270;-56
2023/06/02 02:42:55;;;;;;;18.17;3.50;;;10.10;99.90;;;;;;5036532;28;20716;-55
2023/06/02 02:45:23;;;;;;;11.30;3.27;;;10.10;99.90;;;;;;5038667;28;20199;-54
2023/06/02 02:47:51;;;;;;;15.77;3.93;;;10.10;99.90;;;;;;5039046;28;20210;-54
2023/06/02 02:50:19;;;;;;;18.97;4.60;;;10.10;99.90;;;;;;5047581;28;20269;-56
2023/06/02 02:52:46;;;;;;;15.27;4.77;;;10.10;99.90;;;;;;5037918;28;20211;-55
2023/06/02 02:55:14;;;;;;;17.33;3.37;;;10.10;99.90;;;;;;5044981;28;20725;-55
2023/06/02 02:57:44;;;;;;;14.93;3.77;;;10.10;99.90;;;;;;5021235;28;20203;-55
2023/06/02 03:00:13;;;;;;;14.57;3.77;;;10.00;99.90;;;;;;5037349;28;20191;-53
2023/06/02 03:02:42;;;;;;;16.60;3.87;;;10.00;99.90;;;;;;5043403;28;20672;-56
2023/06/02 03:05:13;;;;;;;19.00;4.00;;;10.00;99.90;;;;;;5044895;28;20244;-54
2023/06/02 03:07:44;;;;;;;16.67;4.10;;;10.00;99.90;;;;;;5040295;28;20720;-52
2023/06/02 03:10:12;;;;;;;24.20;5.13;;;10.00;99.90;;;;;;5049841;28;20213;-55
2023/06/02 03:12:39;;;;;;;16.63;4.13;;;10.00;99.90;;;;;;5025490;28;20196;-56
2023/06/02 03:15:07;;;;;;;18.43;4.20;;;10.00;99.90;;;;;;5033414;28;20257;-54
2023/06/02 03:17:37;;;;;;;16.60;4.43;;;10.00;99.90;;;;;;5044671;28;20912;-56
2023/06/02 03:20:07;;;;;;;17.80;3.83;;;9.90;99.90;;;;;;5043910;28;20195;-50
2023/06/02 03:22:35;;;;;;;18.87;4.07;;;10.00;99.90;;;;;;5044284;28;20743;-55
2023/06/02 03:25:05;;;;;;;17.50;3.97;;;10.00;99.90;;;;;;5033314;28;20204;-55
2023/06/02 03:27:35;;;;;;;12.13;3.70;;;9.90;99.90;;;;;;5019954;28;20219;-56
2023/06/02 03:30:03;;;;;;;17.53;4.70;;;9.90;99.90;;;;;;5036854;28;20192;-56
2023/06/02 03:32:35;;;;;;;16.47;4.07;;;9.90;99.90;;;;;;5024523;28;20283;-55
2023/06/02 03:35:02;;;;;;;9.60;3.30;;;9.90;99.90;;;;;;5035547;28;20681;-53
2023/06/02 03:37:32;;;;;;;14.37;3.90;;;9.90;99.90;;;;;;5042580;28;20311;-55
2023/06/02 03:40:00;;;;;;;16.33;4.43;;;9.90;99.90;;;;;;5034511;28;20203;-55
2023/06/02 03:42:28;;;;;;;16.67;4.13;;;9.90;99.90;;;;;;5032192;28;20198;-56
2023/06/02 03:44:55;;;;;;;15.63;4.00;;;10.00;99.90;;;;;;5032063;28;20658;-55
2023/06/02 03:47:21;;;;;;;11.37;4.33;;;9.90;99.90;;;;;;5028804;28;20221;-56
2023/06/02 03:49:49;;;;;;;12.63;4.13;;;10.00;99.90;;;;;;5045066;28;20195;-53
2023/06/02 03:52:18;;;;;;;12.33;3.57;;;9.90;99.90;;;;;;5039645;28;20388;-55
2023/06/02 03:54:45;;;;;;;16.87;3.87;;;9.90;99.90;;;;;;5036939;28;20226;-56
2023/06/02 03:57:12;;;;;;;12.07;3.80;;;10.00;99.90;;;;;;5028477;28;20231;-56
2023/06/02 03:59:40;;;;;;;12.23;3.70;;;9.90;99.90;;;;;;5042567;28;20287;-52
2023/06/02 04:02:07;;;;;;;17.80;3.70;;;9.90;99.90;;;;;;5042113;28;20195;-55
2023/06/02 04:04:36;;;;;;;15.40;3.50;;;9.90;99.90;;;;;;5044126;28;20215;-54
2023/06/02 04:07:03;;;;;;;13.97;3.90;;;9.90;99.90;;;;;;5039903;28;20262;-53
2023/06/02 04:09:32;;;;;;;17.90;4.83;;;10.00;99.90;;;;;;5035684;28;20194;-55
2023/06/02 04:11:59;;;;;;;17.43;3.73;;;10.00;99.90;;;;;;5035742;28;20842;-54
2023/06/02 04:14:28;;;;;;;12.73;4.37;;;10.00;99.90;;;;;;5034910;28;20203;-54
2023/06/02 04:16:57;;;;;;;12.17;4.03;;;10.00;99.90;;;;;;5044472;28;20222;-56
2023/06/02 04:19:25;;;;;;;12.33;4.40;;;10.00;99.90;;;;;;5041849;28;20257;-54
2023/06/02 04:21:53;;;;;;;13.63;4.70;;;10.10;99.90;;;;;;5036736;28;20187;-56
2023/06/02 04:24:20;;;;;;;14.40;3.77;;;10.10;99.90;;;;;;5036104;28;20180;-54
2023/06/02 04:26:47;;;;;;;14.40;3.83;;;10.10;99.90;;;;;;5033884;28;20319;-53
2023/06/02 04:29:16;;;;;;;12.87;3.80;;;10.20;99.90;;;;;;5037412;28;20253;-54
2023/06/02 04:31:47;;;;;;;13.30;4.00;;;10.20;99.90;;;;;;5043671;28;20215;-55
2023/06/02 04:34:21;;;;;;;10.10;3.53;;;10.20;99.90;;;;;;5037372;28;20226;-53
2023/06/02 04:36:50;;;;;;;11.73;3.70;;;10.20;99.90;;;;;;5036628;28;20913;-56
2023/06/02 04:39:18;;;;;;;7.97;3.50;;;10.30;99.90;;;;;;5039601;28;20186;-52
2023/06/02 04:41:46;;;;;;;12.93;3.80;;;10.30;99.90;;;;;;5044127;28;20199;-56
2023/06/02 04:44:16;;;;;;;12.07;3.60;;;10.30;99.90;;;;;;5032435;28;20561;-51
2023/06/02 04:46:45;;;;;;;8.40;3.50;;;10.40;99.90;;;;;;5040515;28;20223;-56
2023/06/02 04:49:12;;;;;;;10.27;3.60;;;10.40;99.90;;;;;;5036668;28;20187;-55
2023/06/02 04:51:41;;;;;;;13.73;3.73;;;10.40;99.90;;;;;;5034508;28;20956;-53
2023/06/02 04:54:10;;;;;;;15.57;4.27;;;10.50;99.90;;;;;;5046003;28;20222;-51
2023/06/02 04:56:37;;;;;;;10.63;3.67;;;10.50;99.90;;;;;;5039727;28;20269;-56
2023/06/02 04:59:11;;;;;;;6.23;2.77;;;10.50;99.90;;;;;;5037265;28;20573;-52
2023/06/02 05:01:39;;;;;;;7.53;3.60;;;10.60;99.90;;;;;;5046566;28;20876;-56
2023/06/02 05:04:07;;;;;;;8.87;3.20;;;10.70;99.90;;;;;;5036266;28;20191;-51
2023/06/02 05:06:33;;;;;;;11.80;3.43;;;10.70;99.90;;;;;;5037387;28;20206;-53
2023/06/02 05:09:03;;;;;;;10.23;3.53;;;10.70;99.90;;;;;;5043334;28;20195;-56
2023/06/02 05:11:29;;;;;;;10.10;3.00;;;10.80;99.90;;;;;;5037347;28;20234;-53
2023/06/02 05:13:57;;;;;;;12.47;3.83;;;10.80;99.90;;;;;;5035182;28;20596;-56
2023/06/02 05:16:28;;;;;;;12.47;4.07;;;10.90;99.90;;;;;;5034057;28;20230;-56
2023/06/02 05:18:54;;;;;;;11.43;4.00;;;11.00;99.90;;;;;;5034221;28;20918;-52
2023/06/02 05:21:23;;;;;;;12.80;3.77;;;11.00;99.90;;;;;;5037886;28;20270;-52
2023/06/02 05:23:50;;;;;;;12.87;4.37;;;11.10;99.90;;;;;;5023639;28;20189;-56
2023/06/02 05:26:19;;;;;;;10.77;3.40;;;11.20;99.90;;;;;;5021132;28;20920;-55
2023/06/02 05:28:45;;;;;;;9.33;3.73;;;11.20;99.90;;;;;;5043457;28;20238;-56
2023/06/02 05:31:14;;;;;;;10.07;3.60;;;11.30;99.90;;;;;;5028599;28;20209;-56
2023/06/02 05:33:42;;;;;;;12.60;3.73;;;11.40;99.90;;;;;;5042962;28;20211;-53
2023/06/02 05:36:10;;;;;;;11.90;3.37;;;11.50;99.90;;;;;;5040467;28;20219;-57
2023/06/02 05:38:42;;;;;;;10.13;3.83;;;11.60;99.90;;;;;;5042319;28;20199;-55
2023/06/02 05:41:09;;;;;;;13.43;5.10;;;11.60;99.90;;;;;;5040579;28;20249;-55
2023/06/02 05:43:57;;;;;;;9.87;3.70;;;11.60;99.90;;;;;;5050408;28;20703;-56
2023/06/02 05:46:26;;;;;;;8.03;4.27;;;11.70;99.90;;;;;;5028486;28;20871;-54
2023/06/02 05:49:15;;;;;;;11.60;4.30;;;11.80;99.90;;;;;;5040028;28;20202;-56
2023/06/02 05:51:43;;;;;;;9.73;4.33;;;11.80;99.90;;;;;;5038874;28;20586;-56
2023/06/02 05:54:28;;;;;;;11.00;4.10;;;12.00;99.90;;;;;;5044172;28;20218;-56
2023/06/02 05:57:18;;;;;;;14.90;4.10;;;12.10;99.90;;;;;;5039340;28;20230;-56
2023/06/02 05:59:47;;;;;;;15.90;4.20;;;12.20;99.90;;;;;;5036668;28;20195;-56
2023/06/02 06:02:14;;;;;;;9.57;3.80;;;12.30;99.90;;;;;;5044444;28;20207;-56
2023/06/02 06:04:40;;;;;;;11.03;4.50;;;12.40;99.90;;;;;;5036690;28;20191;-50
2023/06/02 06:07:09;;;;;;;11.63;4.47;;;12.50;99.90;;;;;;5043429;28;20221;-56
2023/06/02 06:09:35;;;;;;;6.23;3.27;;;12.60;99.90;;;;;;5037560;28;20191;-53
2023/06/02 06:12:05;;;;;;;20.57;4.67;;;12.60;99.90;;;;;;5036587;28;20293;-49
2023/06/02 06:14:33;;;;;;;11.43;4.87;;;12.70;99.90;;;;;;5031834;28;20298;-55
2023/06/02 06:17:01;;;;;;;11.27;3.93;;;12.80;99.90;;;;;;5024449;28;20219;-53
2023/06/02 06:19:49;;;;;;;9.93;4.80;;;12.90;99.90;;;;;;5037804;28;20203;-55
2023/06/02 06:22:34;;;;;;;8.87;4.00;;;12.90;99.90;;;;;;5039877;28;20206;-54
2023/06/02 06:25:02;;;;;;;8.07;3.83;;;13.00;99.90;;;;;;5039157;28;20208;-56
2023/06/02 06:27:29;;;;;;;17.40;4.80;;;13.10;99.90;;;;;;5030719;28;20211;-57
2023/06/02 06:29:59;;;;;;;6.50;4.53;;;13.20;99.90;;;;;;5039021;28;20191;-51
2023/06/02 06:32:27;;;;;;;11.83;4.77;;;13.20;99.90;;;;;;5012673;28;20212;-57
2023/06/02 06:34:54;;;;;;;8.60;3.80;;;13.30;99.90;;;;;;5030147;28;20215;-50
2023/06/02 06:37:21;;;;;;;10.20;4.07;;;13.40;99.90;;;;;;5039783;28;20218;-56
2023/06/02 06:39:48;;;;;;;6.43;3.63;;;13.50;99.90;;;;;;5034882;28;20187;-55
2023/06/02 06:42:14;;;;;;;8.13;4.00;;;13.60;99.90;;;;;;5033561;28;20188;-56
2023/06/02 06:44:51;;;;;;;6.90;3.70;;;13.70;99.90;;;;;;5028573;28;20278;-56
2023/06/02 06:47:19;;;;;;;7.10;3.33;;;13.80;99.90;;;;;;5016709;28;20227;-50
2023/06/02 06:49:49;;;;;;;10.70;3.90;;;13.90;99.90;;;;;;5015142;28;20617;-55
2023/06/02 06:52:16;;;;;;;10.33;3.87;;;13.90;99.90;;;;;;5030017;28;20276;-55
2023/06/02 06:54:43;;;;;;;8.97;3.43;;;13.90;99.90;;;;;;5024596;28;20226;-55
2023/06/02 06:57:14;;;;;;;5.40;3.10;;;13.90;99.90;;;;;;5039344;28;20608;-53
2023/06/02 06:59:42;;;;;;;8.47;3.57;;;13.90;99.90;;;;;;5037397;28;20223;-56
2023/06/02 07:02:09;;;;;;;6.77;3.20;;;13.90;99.90;;;;;;5022413;28;20207;-52
2023/06/02 07:04:36;;;;;;;7.77;3.03;;;14.00;99.90;;;;;;5026339;28;20203;-57
2023/06/02 07:07:05;;;;;;;7.40;2.93;;;13.90;99.90;;;;;;5034598;28;20220;-57
2023/06/02 07:09:32;;;;;;;5.90;2.93;;;14.00;99.90;;;;;;5026686;28;20203;-55
2023/06/02 07:11:59;;;;;;;7.97;3.07;;;;;;;;;;5039490;28;20788;-53
2023/06/02 07:14:27;;;;;;;6.33;3.10;;;14.10;99.90;;;;;;5042279;28;20707;-51
2023/06/02 07:16:54;;;;;;;8.03;3.10;;;14.30;99.90;;;;;;5019430;28;21383;-53
2023/06/02 07:19:22;;;;;;;10.60;3.20;;;14.40;99.90;;;;;;5027727;28;20250;-48
2023/06/02 07:21:49;;;;;;;7.43;2.80;;;14.40;99.90;;;;;;5034762;28;20283;-55
2023/06/02 07:24:17;;;;;;;3.50;2.30;;;14.50;99.90;;;;;;5033304;28;20210;-48
2023/06/02 07:26:44;;;;;;;5.43;2.77;;;14.50;99.90;;;;;;5035126;28;20759;-56
2023/06/02 07:29:11;;;;;;;6.63;2.77;;;14.60;99.90;;;;;;5050082;28;20202;-53
2023/06/02 07:31:38;;;;;;;3.43;2.03;;;14.60;99.90;;;;;;5032045;28;20203;-58
2023/06/02 07:34:05;;;;;;;4.47;2.40;;;14.60;99.90;;;;;;5027832;28;20222;-54
2023/06/02 07:36:32;;;;;;;5.57;3.53;;;14.60;99.90;;;;;;5031011;28;20227;-57
2023/06/02 07:39:01;;;;;;;8.43;3.93;;;14.60;99.90;;;;;;5039672;28;20247;-54
2023/06/02 07:41:29;;;;;;;6.83;4.00;;;14.40;99.90;;;;;;5038629;28;20211;-55
2023/06/02 07:43:55;;;;;;;6.80;3.80;;;14.40;99.90;;;;;;5041543;28;20191;-52
2023/06/02 07:46:22;;;;;;;9.77;4.30;;;14.30;99.90;;;;;;5044639;28;20583;-52
2023/06/02 07:48:49;;;;;;;8.90;4.50;;;14.30;99.90;;;;;;5017341;28;20214;-56
2023/06/02 07:51:16;;;;;;;9.20;4.93;;;14.30;99.90;;;;;;5033754;28;20191;-51
2023/06/02 07:53:43;;;;;;;7.47;3.90;;;14.30;99.90;;;;;;5042403;28;20203;-55
2023/06/02 07:56:10;;;;;;;8.23;4.37;;;14.40;99.90;;;;;;5038359;28;20215;-53
2023/06/02 07:58:39;;;;;;;9.37;4.30;;;14.40;99.90;;;;;;5045584;28;20214;-58
2023/06/02 08:01:06;;;;;;;8.13;4.70;;;14.50;99.90;;;;;;5039179;28;20251;-54
2023/06/02 08:03:33;;;;;;;6.93;4.13;;;14.60;99.90;;;;;;5027342;28;20253;-58
2023/06/02 08:05:59;;;;;;;6.10;3.80;;;14.70;99.90;;;;;;5029349;28;20217;-49
2023/06/02 08:08:26;;;;;;;6.77;3.73;;;14.70;99.90;;;;;;5037388;28;20213;-54
2023/06/02 08:10:56;;;;;;;6.17;3.43;;;14.70;99.90;;;;;;5040246;28;20910;-49
2023/06/02 08:13:23;;;;;;;4.13;2.77;;;14.70;99.90;;;;;;5037895;28;20207;-51
2023/06/02 08:15:53;;;;;;;6.27;3.17;;;14.70;99.90;;;;;;5036914;28;20277;-55
2023/06/02 08:18:20;;;;;;;4.00;2.77;;;14.70;99.90;;;;;;5035929;28;20191;-54
2023/06/02 08:20:47;;;;;;;6.60;2.23;;;14.70;99.90;;;;;;5013100;28;20203;-53
2023/06/02 08:23:14;;;;;;;4.50;2.77;;;14.70;99.90;;;;;;5036284;28;20203;-54
2023/06/02 08:25:41;;;;;;;5.50;2.27;;;14.90;99.90;;;;;;5037673;28;20211;-52
2023/06/02 08:28:09;;;;;;;4.13;2.20;;;15.10;99.90;;;;;;5042530;28;20290;-52
2023/06/02 08:30:37;;;;;;;3.67;2.40;;;15.20;99.90;;;;;;5033324;28;20736;-55
2023/06/02 08:33:08;;;;;;;6.37;2.30;;;15.30;99.90;;;;;;5034178;28;20196;-51
2023/06/02 08:35:36;;;;;;;6.90;2.50;;;15.30;99.90;;;;;;5030903;28;20811;-55
2023/06/02 08:38:03;;;;;;;7.57;1.90;;;15.30;99.90;;;;;;5041589;28;20206;-54
2023/06/02 08:40:36;;;;;;;4.70;2.23;;;15.30;99.90;;;;;;5042340;28;20200;-56
2023/06/02 08:43:04;;;;;;;5.47;2.03;;;15.30;99.90;;;;;;5043447;28;20187;-52
2023/06/02 08:45:31;;;;;;;3.73;1.90;;;15.40;99.90;;;;;;5028704;28;21227;-56
2023/06/02 08:47:58;;;;;;;4.33;2.33;;;15.40;99.90;;;;;;5037325;28;20207;-50
2023/06/02 08:50:32;;;;;;;5.97;1.90;;;15.40;99.90;;;;;;5034305;28;20669;-56
2023/06/02 08:53:03;;;;;;;2.33;1.50;;;15.60;99.90;;;;;;5036594;28;20269;-54
2023/06/02 08:55:32;;;;;;;3.07;1.50;;;15.60;99.90;;;;;;5039066;28;20293;-56
2023/06/02 08:57:59;;;;;;;5.77;1.70;;;15.60;99.90;;;;;;5038604;28;20226;-55
2023/06/02 09:00:27;;;;;;;3.97;1.90;;;15.80;99.90;;;;;;5032583;28;20302;-56
2023/06/02 09:02:56;;;;;;;3.53;1.57;;;15.70;99.90;;;;;;5032525;28;20210;-56
2023/06/02 09:05:23;;;;;;;5.03;2.17;;;15.80;99.90;;;;;;5034283;28;20207;-49
2023/06/02 09:08:07;;;;;;;7.60;2.00;;;15.80;99.90;;;;;;5039976;28;20693;-52
2023/06/02 09:10:39;;;;;;;2.53;1.77;;;16.00;99.90;;;;;;5027655;28;20519;-54
2023/06/02 09:13:08;;;;;;;6.07;1.53;;;16.10;99.90;;;;;;5030313;28;20214;-56
2023/06/02 09:15:35;;;;;;;3.37;1.60;;;16.20;99.90;;;;;;5039575;28;20231;-54
2023/06/02 09:18:11;;;;;;;3.47;2.27;;;16.40;99.90;;;;;;5027685;28;20317;-54
2023/06/02 09:20:39;;;;;;;2.97;1.40;;;16.60;99.90;;;;;;5037993;28;20677;-52
2023/06/02 09:23:07;;;;;;;3.97;1.40;;;16.60;99.90;;;;;;5019737;28;20211;-51
2023/06/02 09:25:35;;;;;;;7.47;2.10;;;16.60;99.90;;;;;;5032441;28;20230;-53
2023/06/02 09:28:02;;;;;;;4.97;1.70;;;16.50;99.90;;;;;;5027419;28;20262;-53
2023/06/02 09:30:30;;;;;;;3.83;1.50;;;16.50;99.90;;;;;;5037309;28;20917;-54
2023/06/02 09:32:58;;;;;;;2.67;1.37;;;16.60;99.90;;;;;;5041649;28;20204;-52
2023/06/02 09:35:36;;;;;;;1.93;1.17;;;16.80;99.90;;;;;;5036540;28;20215;-56
2023/06/02 09:38:07;;;;;;;3.27;1.50;;;16.90;99.90;;;;;;5030347;28;20865;-52
2023/06/02 09:40:35;;;;;;;2.10;1.20;;;16.80;99.90;;;;;;5017917;28;21351;-54
2023/06/02 09:43:04;;;;;;;2.47;1.40;;;16.80;99.90;;;;;;5039631;28;20650;-51
2023/06/02 09:45:31;;;;;;;2.60;1.03;;;17.00;99.90;;;;;;5037544;28;20906;-50
2023/06/02 09:47:59;;;;;;;4.10;1.13;;;17.10;99.90;;;;;;5042580;28;20212;-50
2023/06/02 09:50:35;;;;;;;1.50;1.13;;;17.30;99.90;;;;;;5039057;28;21136;-47
2023/06/02 09:53:04;;;;;;;1.93;1.30;;;17.50;99.90;;;;;;5014215;28;20199;-54
2023/06/02 09:55:33;;;;;;;2.23;1.47;;;17.60;99.90;;;;;;5016883;28;21452;-55
2023/06/02 09:58:01;;;;;;;2.87;1.30;;;17.60;99.90;;;;;;5042194;28;20198;-52
2023/06/02 10:00:28;;;;;;;3.13;1.10;;;17.70;99.90;;;;;;5033506;28;20273;-54
2023/06/02 10:02:55;;;;;;;2.87;1.30;;;17.70;99.90;;;;;;5043124;28;20214;-52
2023/06/02 10:05:22;;;;;;;3.23;1.40;;;;;;;;;;5031529;28;20291;-48
2023/06/02 10:08:14;;;;;;;4.90;1.17;;;17.80;99.90;;;;;;5019828;28;20222;-55
2023/06/02 10:10:53;;;;;;;3.27;1.03;;;17.90;99.90;;;;;;5036155;28;20215;-50
2023/06/02 10:13:54;;;;;;;2.57;1.53;;;17.80;99.90;;;;;;5031894;28;20201;-54
2023/06/02 10:16:35;;;;;;;1.60;1.07;;;17.60;99.90;;;;;;5015712;28;20318;-54
2023/06/02 10:19:39;;;;;;;3.07;1.10;;;17.70;99.90;;;;;;5031935;28;20291;-56
2023/06/02 10:22:13;;;;;;;2.13;1.23;;;;;;;;;;5023803;28;20217;-57
2023/06/02 10:24:48;;;;;;;2.03;1.27;;;;;;;;;;5023052;28;20199;-55
2023/06/02 10:27:25;;;;;;;2.53;1.27;;;;;;;;;;5029319;28;20223;-57
2023/06/02 10:29:54;;;;;;;3.33;1.10;;;;;;;;;;5035027;28;20620;-56
2023/06/02 10:32:22;;;;;;;2.93;1.00;;;;;;;;;;5031032;28;20195;-54
2023/06/02 10:34:50;;;;;;;4.97;1.30;;;;;;;;;;5030439;28;20838;-56
2023/06/02 10:37:19;;;;;;;5.13;1.13;;;;;;;;;;5031358;28;20216;-57
2023/06/02 10:39:51;;;;;;;2.60;1.43;;;;;;;;;;5012043;28;20214;-56
2023/06/02 10:42:19;;;;;;;2.03;1.00;;;;;;;;;;5031060;28;20615;-57
2023/06/02 10:44:48;;;;;;;3.20;1.33;;;;;;;;;;5025226;28;20206;-49
2023/06/02 10:47:34;;;;;;;5.20;1.30;;;;;;;;;;5029536;28;20215;-58
2023/06/02 10:50:04;;;;;;;3.30;1.40;;;;;;;;;;5034415;28;20206;-58
2023/06/02 10:52:31;;;;;;;4.83;1.40;;;;;;;;;;5035818;28;20210;-54
2023/06/02 10:55:18;;;;;;;1.40;1.03;;;;;;;;;;5017417;28;20314;-56
2023/06/02 10:57:51;;;;;;;2.60;1.07;;;18.80;99.90;;;;;;5041082;28;20203;-56
2023/06/02 11:00:52;;;;;;;3.30;1.17;;;18.80;99.90;;;;;;5036804;28;20611;-56
2023/06/02 11:03:33;;;;;;;4.10;1.00;;;19.00;99.60;;;;;;5023802;28;20211;-58
2023/06/02 11:06:18;;;;;;;3.20;1.10;;;18.80;99.30;;;;;;5034698;28;20241;-53
2023/06/02 11:08:46;;;;;;;2.77;1.20;;;18.60;99.50;;;;;;5045690;28;20196;-55
2023/06/02 11:11:12;;;;;;;2.10;0.90;;;18.50;99.50;;;;;;5029181;28;20203;-56
2023/06/02 11:13:59;;;;;;;2.73;1.10;;;18.40;99.10;;;;;;5042203;28;20697;-53
2023/06/02 11:16:28;;;;;;;4.47;1.60;;;18.20;98.10;;;;;;5031119;28;20225;-56
2023/06/02 11:18:55;;;;;;;1.83;1.37;;;18.20;99.00;;;;;;5032917;28;20349;-54
2023/06/02 11:21:24;;;;;;;4.13;1.20;;;18.20;98.70;;;;;;5035625;28;20200;-49
2023/06/02 11:23:50;;;;;;;0.97;0.97;;;18.40;98.80;;;;;;5045677;28;20200;-50
2023/06/02 11:26:18;;;;;;;2.10;0.90;;;18.60;97.60;;;;;;5025206;28;20215;-55
2023/06/02 11:28:46;;;;;;;2.33;1.23;;;18.80;97.40;;;;;;5027001;28;20199;-52
2023/06/02 11:31:14;;;;;;;5.80;1.47;;;18.90;97.10;;;;;;5028974;28;20195;-52
2023/06/02 11:33:42;;;;;;;4.83;1.00;;;18.90;96.60;;;;;;5035478;28;20211;-54
2023/06/02 11:36:10;;;;;;;2.27;1.30;;;18.80;96.90;;;;;;5039805;28;20239;-57
2023/06/02 11:38:39;;;;;;;4.43;1.40;;;18.80;96.80;;;;;;5040589;28;20998;-53
2023/06/02 11:41:10;;;;;;;1.27;1.00;;;18.80;96.40;;;;;;5036656;28;20200;-56
2023/06/02 11:43:37;;;;;;;2.40;1.20;;;18.80;95.60;;;;;;5033160;28;20199;-53
2023/06/02 11:46:08;;;;;;;1.60;1.10;;;18.90;95.50;;;;;;5028200;28;20226;-55
2023/06/02 11:48:38;;;;;;;4.30;1.17;;;19.00;95.00;;;;;;5043113;28;20279;-52
2023/06/02 11:51:05;;;;;;;2.40;1.23;;;19.10;94.60;;;;;;5037799;28;20217;-56
2023/06/02 11:53:32;;;;;;;2.70;1.23;;;19.00;94.00;;;;;;5036091;28;20291;-56
2023/06/02 11:56:00;;;;;;;2.37;0.87;;;18.90;93.80;;;;;;5046807;28;20215;-52
2023/06/02 11:58:28;;;;;;;4.47;1.00;;;19.00;93.80;;;;;;5015036;28;20290;-52
2023/06/02 12:01:06;;;;;;;1.90;1.20;;;19.20;93.20;;;;;;5034175;28;20213;-51
2023/06/02 12:03:33;;;;;;;3.40;1.17;;;19.40;92.30;;;;;;5041498;28;20249;-52
2023/06/02 12:06:08;;;;;;;2.27;1.07;;;19.50;92.10;;;;;;5038670;28;20227;-56
2023/06/02 12:08:35;;;;;;;1.87;0.90;;;19.60;91.20;;;;;;5038144;28;20193;-54
2023/06/02 12:11:03;;;;;;;2.20;0.90;;;19.60;91.20;;;;;;5027202;28;20882;-56
2023/06/02 12:13:32;;;;;;;3.07;0.83;;;19.60;89.90;;;;;;5024437;28;20498;-54
2023/06/02 12:16:19;;;;;;;2.73;0.90;;;19.70;90.30;;;;;;5038764;28;20220;-56
2023/06/02 12:18:46;;;;;;;4.10;0.90;;;20.00;84.10;;;;;;5033624;28;20211;-52
2023/06/02 12:21:21;;;;;;;1.57;0.60;;;20.00;88.20;;;;;;5033642;28;20278;-50
2023/06/02 12:23:48;;;;;;;5.27;0.90;;;20.10;84.70;;;;;;5041407;28;20249;-55
2023/06/02 12:26:17;;;;;;;7.77;0.83;;;20.00;83.60;;;;;;5046337;28;20222;-57
2023/06/02 12:28:44;;;;;;;1.87;0.90;;;19.90;83.80;;;;;;5032883;28;20280;-55
2023/06/02 12:31:12;;;;;;;3.27;1.33;;;20.00;83.30;;;;;;5026878;28;20555;-57
2023/06/02 12:33:40;;;;;;;1.83;0.80;;;20.10;83.30;;;;;;5035683;28;20210;-53
2023/06/02 12:36:07;;;;;;;2.23;0.70;;;20.10;81.50;;;;;;5042958;28;20242;-56
2023/06/02 12:38:35;;;;;;;4.20;1.00;;;20.10;80.50;;;;;;5034011;28;20207;-54
2023/06/02 12:41:03;;;;;;;2.10;0.70;;;20.00;80.50;;;;;;5036753;28;20640;-58
2023/06/02 12:43:31;;;;;;;1.70;0.80;;;20.10;80.80;;;;;;5029333;28;20381;-58
2023/06/02 12:45:58;;;;;;;1.10;1.00;;;20.10;80.00;;;;;;5033011;28;20211;-57
2023/06/02 12:48:24;;;;;;;1.43;0.80;;;20.30;81.00;;;;;;5035871;28;20192;-54
2023/06/02 12:50:52;;;;;;;2.23;1.13;;;20.60;79.40;;;;;;5043134;28;20249;-55
2023/06/02 12:53:19;;;;;;;1.27;0.80;;;20.80;77.70;;;;;;5027591;28;20266;-57
2023/06/02 12:55:46;;;;;;;4.83;0.80;;;20.90;76.10;;;;;;5036449;28;20239;-52
2023/06/02 12:58:13;;;;;;;4.07;0.77;;;21.10;74.30;;;;;;5039797;28;20810;-53
2023/06/02 13:00:43;;;;;;;1.13;0.60;;;;;;;;;;5013639;28;20873;-53